Terminal Aerodrome Forecast
Issued by NWS

Home | Current Version | Previous Version | Text Only | Print | Product List | Glossary On
Versions: 1 2 3 4 5 6 7 8 9 10 11 12
394
FTUS42 TJSJ 310543
TAFNCM
TAF
TNCM 310543Z 3106/0106 11009KT P6SM FEW020 SCT040
     FM311200 12012KT P6SM FEW018 SCT040
     FM312300 10010KT P6SM VCSH SCT018 BKN040=

USA.gov is the U.S. government's official web portal to all federal, state and local government web resources and services.